sensor_id;sensor_type;location;lat;lon;timestamp;P1;durP1;ratioP1;P2;durP2;ratioP2
68256;SDS011;55069;51.568;4.656;2022-07-29T00:01:36;3.23;;;1.33;;
68256;SDS011;55069;51.568;4.656;2022-07-29T00:04:02;3.45;;;1.40;;
68256;SDS011;55069;51.568;4.656;2022-07-29T00:06:27;4.33;;;1.47;;
68256;SDS011;55069;51.568;4.656;2022-07-29T00:08:53;5.17;;;1.60;;
68256;SDS011;55069;51.568;4.656;2022-07-29T00:11:18;4.88;;;1.80;;
68256;SDS011;55069;51.568;4.656;2022-07-29T00:13:44;3.57;;;1.10;;
68256;SDS011;55069;51.568;4.656;2022-07-29T00:16:09;3.77;;;1.30;;
68256;SDS011;55069;51.568;4.656;2022-07-29T00:18:35;6.05;;;1.27;;
68256;SDS011;55069;51.568;4.656;2022-07-29T00:21:00;4.33;;;1.10;;
68256;SDS011;55069;51.568;4.656;2022-07-29T00:23:26;3.87;;;1.43;;
68256;SDS011;55069;51.568;4.656;2022-07-29T00:25:52;6.35;;;1.42;;
68256;SDS011;55069;51.568;4.656;2022-07-29T00:28:17;5.80;;;1.37;;
68256;SDS011;55069;51.568;4.656;2022-07-29T00:30:43;2.83;;;1.25;;
68256;SDS011;55069;51.568;4.656;2022-07-29T00:33:09;2.20;;;1.03;;
68256;SDS011;55069;51.568;4.656;2022-07-29T00:35:35;8.38;;;1.10;;
68256;SDS011;55069;51.568;4.656;2022-07-29T00:38:13;4.60;;;1.20;;
68256;SDS011;55069;51.568;4.656;2022-07-29T00:40:41;2.42;;;1.00;;
68256;SDS011;55069;51.568;4.656;2022-07-29T00:43:08;3.57;;;1.20;;
68256;SDS011;55069;51.568;4.656;2022-07-29T00:45:33;3.92;;;1.30;;
68256;SDS011;55069;51.568;4.656;2022-07-29T00:47:59;3.13;;;1.27;;
68256;SDS011;55069;51.568;4.656;2022-07-29T00:50:25;2.83;;;1.13;;
68256;SDS011;55069;51.568;4.656;2022-07-29T00:52:51;3.65;;;1.38;;
68256;SDS011;55069;51.568;4.656;2022-07-29T00:55:18;5.18;;;1.55;;
68256;SDS011;55069;51.568;4.656;2022-07-29T00:57:44;3.27;;;1.60;;
68256;SDS011;55069;51.568;4.656;2022-07-29T01:00:11;4.72;;;1.40;;
68256;SDS011;55069;51.568;4.656;2022-07-29T01:02:40;2.85;;;1.00;;
68256;SDS011;55069;51.568;4.656;2022-07-29T01:05:05;3.17;;;1.30;;
68256;SDS011;55069;51.568;4.656;2022-07-29T01:07:33;4.45;;;1.23;;
68256;SDS011;55069;51.568;4.656;2022-07-29T01:09:59;5.22;;;1.90;;
68256;SDS011;55069;51.568;4.656;2022-07-29T01:12:28;5.97;;;1.20;;
68256;SDS011;55069;51.568;4.656;2022-07-29T01:14:56;4.38;;;1.55;;
68256;SDS011;55069;51.568;4.656;2022-07-29T01:17:24;3.87;;;1.30;;
68256;SDS011;55069;51.568;4.656;2022-07-29T01:20:02;4.28;;;1.20;;
68256;SDS011;55069;51.568;4.656;2022-07-29T01:22:31;4.05;;;1.50;;
68256;SDS011;55069;51.568;4.656;2022-07-29T01:30:39;3.50;;;1.40;;
68256;SDS011;55069;51.568;4.656;2022-07-29T01:33:10;10.95;;;1.92;;
68256;SDS011;55069;51.568;4.656;2022-07-29T01:35:58;7.10;;;1.70;;
68256;SDS011;55069;51.568;4.656;2022-07-29T01:38:30;4.35;;;1.65;;
68256;SDS011;55069;51.568;4.656;2022-07-29T01:41:04;5.70;;;1.90;;
68256;SDS011;55069;51.568;4.656;2022-07-29T01:44:18;3.85;;;1.20;;
68256;SDS011;55069;51.568;4.656;2022-07-29T01:46:33;5.38;;;1.50;;
68256;SDS011;55069;51.568;4.656;2022-07-29T01:51:43;2.05;;;1.27;;
68256;SDS011;55069;51.568;4.656;2022-07-29T01:56:42;5.85;;;1.38;;
68256;SDS011;55069;51.568;4.656;2022-07-29T01:59:10;3.80;;;1.08;;
68256;SDS011;55069;51.568;4.656;2022-07-29T02:01:37;4.30;;;1.40;;
68256;SDS011;55069;51.568;4.656;2022-07-29T02:04:06;3.60;;;1.58;;
68256;SDS011;55069;51.568;4.656;2022-07-29T02:06:35;5.63;;;1.63;;
68256;SDS011;55069;51.568;4.656;2022-07-29T02:09:03;3.45;;;1.70;;
68256;SDS011;55069;51.568;4.656;2022-07-29T02:11:31;2.95;;;1.52;;
68256;SDS011;55069;51.568;4.656;2022-07-29T02:13:59;2.20;;;1.35;;
68256;SDS011;55069;51.568;4.656;2022-07-29T02:16:25;3.60;;;1.80;;
68256;SDS011;55069;51.568;4.656;2022-07-29T02:18:52;9.27;;;1.80;;
68256;SDS011;55069;51.568;4.656;2022-07-29T02:21:20;3.58;;;1.40;;
68256;SDS011;55069;51.568;4.656;2022-07-29T02:23:49;5.70;;;1.48;;
68256;SDS011;55069;51.568;4.656;2022-07-29T02:26:16;5.05;;;1.60;;
68256;SDS011;55069;51.568;4.656;2022-07-29T02:28:43;4.28;;;1.65;;
68256;SDS011;55069;51.568;4.656;2022-07-29T02:31:11;6.90;;;1.80;;
68256;SDS011;55069;51.568;4.656;2022-07-29T02:33:37;2.85;;;1.83;;
68256;SDS011;55069;51.568;4.656;2022-07-29T02:36:05;5.22;;;1.70;;
68256;SDS011;55069;51.568;4.656;2022-07-29T02:38:32;2.97;;;1.65;;
68256;SDS011;55069;51.568;4.656;2022-07-29T02:41:17;4.82;;;1.95;;
68256;SDS011;55069;51.568;4.656;2022-07-29T02:43:46;3.67;;;1.33;;
68256;SDS011;55069;51.568;4.656;2022-07-29T02:46:18;3.45;;;1.50;;
68256;SDS011;55069;51.568;4.656;2022-07-29T02:48:55;5.28;;;1.92;;
68256;SDS011;55069;51.568;4.656;2022-07-29T02:51:43;3.08;;;1.70;;
68256;SDS011;55069;51.568;4.656;2022-07-29T02:54:17;5.70;;;1.67;;
68256;SDS011;55069;51.568;4.656;2022-07-29T02:56:51;5.20;;;1.97;;
68256;SDS011;55069;51.568;4.656;2022-07-29T02:59:22;6.45;;;1.73;;
68256;SDS011;55069;51.568;4.656;2022-07-29T03:01:52;4.60;;;1.30;;
68256;SDS011;55069;51.568;4.656;2022-07-29T03:04:20;7.97;;;1.48;;
68256;SDS011;55069;51.568;4.656;2022-07-29T03:06:50;4.38;;;1.98;;
68256;SDS011;55069;51.568;4.656;2022-07-29T03:09:18;2.23;;;1.57;;
68256;SDS011;55069;51.568;4.656;2022-07-29T03:11:43;5.30;;;1.90;;
68256;SDS011;55069;51.568;4.656;2022-07-29T03:14:10;5.20;;;1.77;;
68256;SDS011;55069;51.568;4.656;2022-07-29T03:16:36;4.30;;;1.55;;
68256;SDS011;55069;51.568;4.656;2022-07-29T03:19:03;6.33;;;2.07;;
68256;SDS011;55069;51.568;4.656;2022-07-29T03:21:29;5.03;;;1.80;;
68256;SDS011;55069;51.568;4.656;2022-07-29T03:23:56;3.22;;;1.63;;
68256;SDS011;55069;51.568;4.656;2022-07-29T03:26:21;5.10;;;1.67;;
68256;SDS011;55069;51.568;4.656;2022-07-29T03:28:47;2.97;;;1.77;;
68256;SDS011;55069;51.568;4.656;2022-07-29T03:31:13;5.00;;;1.70;;
68256;SDS011;55069;51.568;4.656;2022-07-29T03:33:38;7.03;;;1.70;;
68256;SDS011;55069;51.568;4.656;2022-07-29T03:36:04;5.10;;;1.80;;
68256;SDS011;55069;51.568;4.656;2022-07-29T03:38:30;3.65;;;1.85;;
68256;SDS011;55069;51.568;4.656;2022-07-29T03:41:00;3.50;;;1.57;;
68256;SDS011;55069;51.568;4.656;2022-07-29T03:43:30;4.35;;;1.63;;
68256;SDS011;55069;51.568;4.656;2022-07-29T03:45:58;2.72;;;1.60;;
68256;SDS011;55069;51.568;4.656;2022-07-29T03:48:25;4.30;;;1.67;;
68256;SDS011;55069;51.568;4.656;2022-07-29T03:50:54;5.50;;;2.08;;
68256;SDS011;55069;51.568;4.656;2022-07-29T03:53:20;6.00;;;1.93;;
68256;SDS011;55069;51.568;4.656;2022-07-29T03:55:47;2.67;;;1.40;;
68256;SDS011;55069;51.568;4.656;2022-07-29T03:58:17;2.78;;;1.40;;
68256;SDS011;55069;51.568;4.656;2022-07-29T04:00:44;5.72;;;1.52;;
68256;SDS011;55069;51.568;4.656;2022-07-29T04:03:10;4.57;;;2.00;;
68256;SDS011;55069;51.568;4.656;2022-07-29T04:05:37;5.30;;;1.98;;
68256;SDS011;55069;51.568;4.656;2022-07-29T04:08:02;7.63;;;1.80;;
68256;SDS011;55069;51.568;4.656;2022-07-29T04:10:28;4.55;;;1.95;;
68256;SDS011;55069;51.568;4.656;2022-07-29T04:12:54;4.03;;;1.97;;
68256;SDS011;55069;51.568;4.656;2022-07-29T04:15:21;7.53;;;1.70;;
68256;SDS011;55069;51.568;4.656;2022-07-29T04:17:47;6.90;;;1.80;;
68256;SDS011;55069;51.568;4.656;2022-07-29T04:20:12;4.87;;;1.93;;
68256;SDS011;55069;51.568;4.656;2022-07-29T04:22:39;2.42;;;1.50;;
68256;SDS011;55069;51.568;4.656;2022-07-29T04:25:05;7.43;;;1.80;;
68256;SDS011;55069;51.568;4.656;2022-07-29T04:27:31;4.63;;;2.10;;
68256;SDS011;55069;51.568;4.656;2022-07-29T04:29:57;4.20;;;2.03;;
68256;SDS011;55069;51.568;4.656;2022-07-29T04:32:23;3.55;;;1.73;;
68256;SDS011;55069;51.568;4.656;2022-07-29T04:34:49;5.80;;;1.67;;
68256;SDS011;55069;51.568;4.656;2022-07-29T04:37:15;2.67;;;1.77;;
68256;SDS011;55069;51.568;4.656;2022-07-29T04:39:41;8.40;;;2.00;;
68256;SDS011;55069;51.568;4.656;2022-07-29T04:42:06;7.57;;;1.80;;
68256;SDS011;55069;51.568;4.656;2022-07-29T04:44:32;10.50;;;2.30;;
68256;SDS011;55069;51.568;4.656;2022-07-29T04:46:58;4.97;;;2.05;;
68256;SDS011;55069;51.568;4.656;2022-07-29T04:49:24;5.45;;;2.40;;
68256;SDS011;55069;51.568;4.656;2022-07-29T04:51:50;5.05;;;2.03;;
68256;SDS011;55069;51.568;4.656;2022-07-29T04:54:16;3.13;;;1.67;;
68256;SDS011;55069;51.568;4.656;2022-07-29T04:56:42;3.45;;;1.65;;
68256;SDS011;55069;51.568;4.656;2022-07-29T04:59:08;4.55;;;2.17;;
68256;SDS011;55069;51.568;4.656;2022-07-29T05:01:35;6.75;;;2.05;;
68256;SDS011;55069;51.568;4.656;2022-07-29T05:04:01;6.60;;;2.63;;
68256;SDS011;55069;51.568;4.656;2022-07-29T05:06:27;5.60;;;1.67;;
68256;SDS011;55069;51.568;4.656;2022-07-29T05:08:53;4.13;;;2.30;;
68256;SDS011;55069;51.568;4.656;2022-07-29T05:11:19;5.50;;;2.07;;
68256;SDS011;55069;51.568;4.656;2022-07-29T05:13:45;5.82;;;2.03;;
68256;SDS011;55069;51.568;4.656;2022-07-29T05:16:11;7.00;;;2.35;;
68256;SDS011;55069;51.568;4.656;2022-07-29T05:18:38;7.67;;;2.00;;
68256;SDS011;55069;51.568;4.656;2022-07-29T05:21:04;5.07;;;2.05;;
68256;SDS011;55069;51.568;4.656;2022-07-29T05:23:30;4.82;;;2.08;;
68256;SDS011;55069;51.568;4.656;2022-07-29T05:25:56;4.43;;;2.25;;
68256;SDS011;55069;51.568;4.656;2022-07-29T05:28:21;8.55;;;2.40;;
68256;SDS011;55069;51.568;4.656;2022-07-29T05:30:47;7.83;;;1.90;;
68256;SDS011;55069;51.568;4.656;2022-07-29T05:33:14;7.40;;;2.47;;
68256;SDS011;55069;51.568;4.656;2022-07-29T05:35:40;8.23;;;2.47;;
68256;SDS011;55069;51.568;4.656;2022-07-29T05:38:06;7.47;;;2.40;;
68256;SDS011;55069;51.568;4.656;2022-07-29T05:40:32;3.77;;;2.13;;
68256;SDS011;55069;51.568;4.656;2022-07-29T05:42:59;11.18;;;2.30;;
68256;SDS011;55069;51.568;4.656;2022-07-29T05:45:25;6.90;;;2.15;;
68256;SDS011;55069;51.568;4.656;2022-07-29T05:47:51;5.90;;;2.53;;
68256;SDS011;55069;51.568;4.656;2022-07-29T05:50:16;5.13;;;2.13;;
68256;SDS011;55069;51.568;4.656;2022-07-29T05:52:42;5.30;;;2.27;;
68256;SDS011;55069;51.568;4.656;2022-07-29T05:55:08;7.60;;;1.90;;
68256;SDS011;55069;51.568;4.656;2022-07-29T05:57:34;7.80;;;2.17;;
68256;SDS011;55069;51.568;4.656;2022-07-29T06:00:00;6.33;;;2.40;;
68256;SDS011;55069;51.568;4.656;2022-07-29T06:02:26;7.07;;;2.47;;
68256;SDS011;55069;51.568;4.656;2022-07-29T06:04:52;8.30;;;2.65;;
68256;SDS011;55069;51.568;4.656;2022-07-29T06:07:18;4.67;;;2.27;;
68256;SDS011;55069;51.568;4.656;2022-07-29T06:09:43;4.72;;;2.58;;
68256;SDS011;55069;51.568;4.656;2022-07-29T06:12:09;6.88;;;2.30;;
68256;SDS011;55069;51.568;4.656;2022-07-29T06:14:35;5.85;;;2.50;;
68256;SDS011;55069;51.568;4.656;2022-07-29T06:17:03;6.53;;;2.55;;
68256;SDS011;55069;51.568;4.656;2022-07-29T06:19:30;5.53;;;2.77;;
68256;SDS011;55069;51.568;4.656;2022-07-29T06:21:58;6.22;;;3.13;;
68256;SDS011;55069;51.568;4.656;2022-07-29T06:24:24;5.97;;;2.80;;
68256;SDS011;55069;51.568;4.656;2022-07-29T06:26:50;9.70;;;2.87;;
68256;SDS011;55069;51.568;4.656;2022-07-29T06:29:15;4.72;;;2.70;;
68256;SDS011;55069;51.568;4.656;2022-07-29T06:31:42;7.05;;;2.90;;
68256;SDS011;55069;51.568;4.656;2022-07-29T06:34:07;8.77;;;3.00;;
68256;SDS011;55069;51.568;4.656;2022-07-29T06:36:34;6.87;;;2.93;;
68256;SDS011;55069;51.568;4.656;2022-07-29T06:39:03;8.65;;;3.13;;
68256;SDS011;55069;51.568;4.656;2022-07-29T06:41:30;5.38;;;2.67;;
68256;SDS011;55069;51.568;4.656;2022-07-29T06:43:59;6.43;;;3.13;;
68256;SDS011;55069;51.568;4.656;2022-07-29T06:46:26;4.83;;;2.30;;
68256;SDS011;55069;51.568;4.656;2022-07-29T06:48:52;8.68;;;2.70;;
68256;SDS011;55069;51.568;4.656;2022-07-29T06:51:18;9.30;;;2.67;;
68256;SDS011;55069;51.568;4.656;2022-07-29T06:53:45;9.35;;;2.75;;
68256;SDS011;55069;51.568;4.656;2022-07-29T06:56:10;6.17;;;2.47;;
68256;SDS011;55069;51.568;4.656;2022-07-29T06:58:39;5.95;;;2.40;;
68256;SDS011;55069;51.568;4.656;2022-07-29T07:01:05;7.22;;;2.50;;
68256;SDS011;55069;51.568;4.656;2022-07-29T07:03:32;10.05;;;2.97;;
68256;SDS011;55069;51.568;4.656;2022-07-29T07:05:58;9.52;;;2.70;;
68256;SDS011;55069;51.568;4.656;2022-07-29T07:08:25;7.20;;;2.40;;
68256;SDS011;55069;51.568;4.656;2022-07-29T07:10:51;10.05;;;2.80;;
68256;SDS011;55069;51.568;4.656;2022-07-29T07:13:18;5.93;;;2.72;;
68256;SDS011;55069;51.568;4.656;2022-07-29T07:15:44;5.60;;;2.35;;
68256;SDS011;55069;51.568;4.656;2022-07-29T07:18:10;7.10;;;2.53;;
68256;SDS011;55069;51.568;4.656;2022-07-29T07:20:36;8.83;;;2.43;;
68256;SDS011;55069;51.568;4.656;2022-07-29T07:23:02;6.40;;;2.40;;
68256;SDS011;55069;51.568;4.656;2022-07-29T07:25:28;6.05;;;2.83;;
68256;SDS011;55069;51.568;4.656;2022-07-29T07:27:54;11.07;;;3.30;;
68256;SDS011;55069;51.568;4.656;2022-07-29T07:30:20;7.35;;;2.72;;
68256;SDS011;55069;51.568;4.656;2022-07-29T07:32:46;12.40;;;2.90;;
68256;SDS011;55069;51.568;4.656;2022-07-29T07:35:12;8.60;;;2.27;;
68256;SDS011;55069;51.568;4.656;2022-07-29T07:37:38;7.00;;;2.03;;
68256;SDS011;55069;51.568;4.656;2022-07-29T07:40:05;9.57;;;3.30;;
68256;SDS011;55069;51.568;4.656;2022-07-29T07:42:32;18.00;;;2.83;;
68256;SDS011;55069;51.568;4.656;2022-07-29T07:44:58;8.77;;;2.30;;
68256;SDS011;55069;51.568;4.656;2022-07-29T07:47:25;8.50;;;2.85;;
68256;SDS011;55069;51.568;4.656;2022-07-29T07:49:51;4.35;;;2.28;;
68256;SDS011;55069;51.568;4.656;2022-07-29T07:52:19;7.97;;;2.95;;
68256;SDS011;55069;51.568;4.656;2022-07-29T07:54:46;9.25;;;2.75;;
68256;SDS011;55069;51.568;4.656;2022-07-29T07:57:12;14.98;;;2.72;;
68256;SDS011;55069;51.568;4.656;2022-07-29T07:59:39;14.15;;;2.42;;
68256;SDS011;55069;51.568;4.656;2022-07-29T08:02:05;9.20;;;2.50;;
68256;SDS011;55069;51.568;4.656;2022-07-29T08:04:31;11.05;;;3.45;;
68256;SDS011;55069;51.568;4.656;2022-07-29T08:06:57;4.17;;;2.60;;
68256;SDS011;55069;51.568;4.656;2022-07-29T08:09:24;6.90;;;2.63;;
68256;SDS011;55069;51.568;4.656;2022-07-29T08:11:51;6.93;;;2.50;;
68256;SDS011;55069;51.568;4.656;2022-07-29T08:14:17;9.85;;;3.28;;
68256;SDS011;55069;51.568;4.656;2022-07-29T08:16:43;7.20;;;3.53;;
68256;SDS011;55069;51.568;4.656;2022-07-29T08:19:10;10.82;;;3.33;;
68256;SDS011;55069;51.568;4.656;2022-07-29T08:21:36;9.95;;;2.63;;
68256;SDS011;55069;51.568;4.656;2022-07-29T08:24:02;6.95;;;2.72;;
68256;SDS011;55069;51.568;4.656;2022-07-29T08:26:47;7.70;;;2.75;;
68256;SDS011;55069;51.568;4.656;2022-07-29T08:29:13;4.40;;;2.97;;
68256;SDS011;55069;51.568;4.656;2022-07-29T08:31:39;5.75;;;2.45;;
68256;SDS011;55069;51.568;4.656;2022-07-29T08:34:05;6.47;;;3.08;;
68256;SDS011;55069;51.568;4.656;2022-07-29T08:36:31;5.07;;;2.97;;
68256;SDS011;55069;51.568;4.656;2022-07-29T08:38:58;7.47;;;3.30;;
68256;SDS011;55069;51.568;4.656;2022-07-29T08:41:24;7.38;;;2.78;;
68256;SDS011;55069;51.568;4.656;2022-07-29T08:43:51;6.43;;;3.03;;
68256;SDS011;55069;51.568;4.656;2022-07-29T08:46:18;11.93;;;3.83;;
68256;SDS011;55069;51.568;4.656;2022-07-29T08:48:44;5.18;;;3.08;;
68256;SDS011;55069;51.568;4.656;2022-07-29T08:51:14;6.80;;;2.87;;
68256;SDS011;55069;51.568;4.656;2022-07-29T08:53:45;8.98;;;3.35;;
68256;SDS011;55069;51.568;4.656;2022-07-29T08:56:17;8.98;;;3.35;;
68256;SDS011;55069;51.568;4.656;2022-07-29T08:58:45;9.07;;;3.25;;
68256;SDS011;55069;51.568;4.656;2022-07-29T09:01:12;13.20;;;3.42;;
68256;SDS011;55069;51.568;4.656;2022-07-29T09:03:41;8.83;;;3.53;;
68256;SDS011;55069;51.568;4.656;2022-07-29T09:06:09;13.13;;;3.30;;
68256;SDS011;55069;51.568;4.656;2022-07-29T09:08:43;9.48;;;2.78;;
68256;SDS011;55069;51.568;4.656;2022-07-29T09:11:09;10.68;;;3.05;;
68256;SDS011;55069;51.568;4.656;2022-07-29T09:13:37;6.22;;;3.00;;
68256;SDS011;55069;51.568;4.656;2022-07-29T09:16:03;10.87;;;3.27;;
68256;SDS011;55069;51.568;4.656;2022-07-29T09:18:39;8.73;;;2.67;;
68256;SDS011;55069;51.568;4.656;2022-07-29T09:21:07;13.50;;;2.95;;
68256;SDS011;55069;51.568;4.656;2022-07-29T09:24:06;7.63;;;2.55;;
68256;SDS011;55069;51.568;4.656;2022-07-29T09:26:32;6.70;;;2.92;;
68256;SDS011;55069;51.568;4.656;2022-07-29T09:29:09;5.70;;;2.73;;
68256;SDS011;55069;51.568;4.656;2022-07-29T09:31:39;8.82;;;2.80;;
68256;SDS011;55069;51.568;4.656;2022-07-29T09:34:09;9.68;;;2.75;;
68256;SDS011;55069;51.568;4.656;2022-07-29T09:36:43;6.68;;;2.83;;
68256;SDS011;55069;51.568;4.656;2022-07-29T09:39:13;6.75;;;2.28;;
68256;SDS011;55069;51.568;4.656;2022-07-29T09:41:47;9.27;;;2.33;;
68256;SDS011;55069;51.568;4.656;2022-07-29T09:44:18;4.15;;;2.50;;
68256;SDS011;55069;51.568;4.656;2022-07-29T09:46:54;7.35;;;2.40;;
68256;SDS011;55069;51.568;4.656;2022-07-29T09:49:33;6.35;;;2.33;;
68256;SDS011;55069;51.568;4.656;2022-07-29T09:54:28;6.67;;;2.10;;
68256;SDS011;55069;51.568;4.656;2022-07-29T09:56:59;8.93;;;2.38;;
68256;SDS011;55069;51.568;4.656;2022-07-29T09:59:25;5.63;;;2.38;;
68256;SDS011;55069;51.568;4.656;2022-07-29T10:01:51;6.35;;;2.25;;
68256;SDS011;55069;51.568;4.656;2022-07-29T10:04:18;5.70;;;2.00;;
68256;SDS011;55069;51.568;4.656;2022-07-29T10:06:57;13.82;;;2.20;;
68256;SDS011;55069;51.568;4.656;2022-07-29T10:09:26;4.70;;;2.47;;
68256;SDS011;55069;51.568;4.656;2022-07-29T10:14:36;8.13;;;2.35;;
68256;SDS011;55069;51.568;4.656;2022-07-29T10:17:04;13.60;;;2.60;;
68256;SDS011;55069;51.568;4.656;2022-07-29T10:19:31;6.65;;;2.75;;
68256;SDS011;55069;51.568;4.656;2022-07-29T10:21:57;6.63;;;1.98;;
68256;SDS011;55069;51.568;4.656;2022-07-29T10:24:25;9.93;;;3.00;;
68256;SDS011;55069;51.568;4.656;2022-07-29T10:26:56;6.22;;;1.65;;
68256;SDS011;55069;51.568;4.656;2022-07-29T10:29:23;5.20;;;2.20;;
68256;SDS011;55069;51.568;4.656;2022-07-29T10:34:34;10.60;;;2.42;;
68256;SDS011;55069;51.568;4.656;2022-07-29T10:37:22;4.88;;;2.28;;
68256;SDS011;55069;51.568;4.656;2022-07-29T10:43:05;6.88;;;2.00;;
68256;SDS011;55069;51.568;4.656;2022-07-29T10:45:43;9.50;;;1.88;;
68256;SDS011;55069;51.568;4.656;2022-07-29T10:48:12;8.43;;;2.30;;
68256;SDS011;55069;51.568;4.656;2022-07-29T10:53:24;9.23;;;2.25;;
68256;SDS011;55069;51.568;4.656;2022-07-29T11:01:46;3.67;;;1.80;;
68256;SDS011;55069;51.568;4.656;2022-07-29T11:04:16;5.30;;;2.25;;
68256;SDS011;55069;51.568;4.656;2022-07-29T11:07:10;10.65;;;2.28;;
68256;SDS011;55069;51.568;4.656;2022-07-29T11:09:38;3.80;;;1.77;;
68256;SDS011;55069;51.568;4.656;2022-07-29T11:12:49;6.82;;;2.03;;
68256;SDS011;55069;51.568;4.656;2022-07-29T11:15:02;5.15;;;2.05;;
68256;SDS011;55069;51.568;4.656;2022-07-29T11:23:00;12.13;;;1.77;;
68256;SDS011;55069;51.568;4.656;2022-07-29T11:25:26;7.00;;;1.77;;
68256;SDS011;55069;51.568;4.656;2022-07-29T11:27:52;7.68;;;2.30;;
68256;SDS011;55069;51.568;4.656;2022-07-29T11:30:19;4.05;;;1.55;;
68256;SDS011;55069;51.568;4.656;2022-07-29T11:32:45;8.53;;;2.03;;
68256;SDS011;55069;51.568;4.656;2022-07-29T11:35:15;9.48;;;2.30;;
68256;SDS011;55069;51.568;4.656;2022-07-29T11:37:46;4.15;;;1.90;;
68256;SDS011;55069;51.568;4.656;2022-07-29T11:40:32;7.18;;;2.45;;
68256;SDS011;55069;51.568;4.656;2022-07-29T11:42:58;5.40;;;1.90;;
68256;SDS011;55069;51.568;4.656;2022-07-29T11:45:24;5.93;;;2.20;;
68256;SDS011;55069;51.568;4.656;2022-07-29T11:47:55;8.05;;;2.33;;
68256;SDS011;55069;51.568;4.656;2022-07-29T11:52:58;6.03;;;2.50;;
68256;SDS011;55069;51.568;4.656;2022-07-29T11:55:25;4.18;;;2.28;;
68256;SDS011;55069;51.568;4.656;2022-07-29T11:57:52;4.63;;;2.20;;
68256;SDS011;55069;51.568;4.656;2022-07-29T12:02:50;3.80;;;1.83;;
68256;SDS011;55069;51.568;4.656;2022-07-29T12:05:16;13.88;;;2.45;;
68256;SDS011;55069;51.568;4.656;2022-07-29T12:07:42;8.80;;;2.30;;
68256;SDS011;55069;51.568;4.656;2022-07-29T12:10:08;11.10;;;2.57;;
68256;SDS011;55069;51.568;4.656;2022-07-29T12:12:34;7.10;;;2.20;;
68256;SDS011;55069;51.568;4.656;2022-07-29T12:15:10;6.70;;;2.97;;
68256;SDS011;55069;51.568;4.656;2022-07-29T12:17:40;6.85;;;3.08;;
68256;SDS011;55069;51.568;4.656;2022-07-29T12:20:06;5.87;;;3.00;;
68256;SDS011;55069;51.568;4.656;2022-07-29T12:25:09;4.50;;;2.60;;
68256;SDS011;55069;51.568;4.656;2022-07-29T12:27:36;10.48;;;2.15;;
68256;SDS011;55069;51.568;4.656;2022-07-29T12:30:10;6.33;;;2.63;;
68256;SDS011;55069;51.568;4.656;2022-07-29T12:32:47;6.68;;;2.40;;
68256;SDS011;55069;51.568;4.656;2022-07-29T12:35:14;10.55;;;2.90;;
68256;SDS011;55069;51.568;4.656;2022-07-29T12:37:44;5.85;;;2.75;;
68256;SDS011;55069;51.568;4.656;2022-07-29T12:40:12;9.57;;;2.25;;
68256;SDS011;55069;51.568;4.656;2022-07-29T12:43:26;6.67;;;2.53;;
68256;SDS011;55069;51.568;4.656;2022-07-29T12:45:34;12.02;;;3.10;;
68256;SDS011;55069;51.568;4.656;2022-07-29T12:48:01;10.25;;;2.92;;
68256;SDS011;55069;51.568;4.656;2022-07-29T12:50:27;5.60;;;2.60;;
68256;SDS011;55069;51.568;4.656;2022-07-29T12:52:53;9.17;;;3.00;;
68256;SDS011;55069;51.568;4.656;2022-07-29T12:58:04;8.63;;;2.30;;
68256;SDS011;55069;51.568;4.656;2022-07-29T13:00:30;4.27;;;1.90;;
68256;SDS011;55069;51.568;4.656;2022-07-29T13:02:57;7.80;;;2.45;;
68256;SDS011;55069;51.568;4.656;2022-07-29T13:05:24;5.32;;;2.58;;
68256;SDS011;55069;51.568;4.656;2022-07-29T13:08:13;5.80;;;2.40;;
68256;SDS011;55069;51.568;4.656;2022-07-29T13:10:41;11.63;;;2.73;;
68256;SDS011;55069;51.568;4.656;2022-07-29T13:13:11;8.15;;;2.40;;
68256;SDS011;55069;51.568;4.656;2022-07-29T13:15:44;7.30;;;2.78;;
68256;SDS011;55069;51.568;4.656;2022-07-29T13:18:32;6.85;;;2.60;;
68256;SDS011;55069;51.568;4.656;2022-07-29T13:21:13;8.60;;;2.30;;
68256;SDS011;55069;51.568;4.656;2022-07-29T13:23:41;7.13;;;2.70;;
68256;SDS011;55069;51.568;4.656;2022-07-29T13:26:10;9.80;;;3.05;;
68256;SDS011;55069;51.568;4.656;2022-07-29T13:28:36;5.82;;;2.72;;
68256;SDS011;55069;51.568;4.656;2022-07-29T13:31:03;7.78;;;2.70;;
68256;SDS011;55069;51.568;4.656;2022-07-29T13:33:30;4.15;;;2.50;;
68256;SDS011;55069;51.568;4.656;2022-07-29T13:35:56;9.53;;;2.77;;
68256;SDS011;55069;51.568;4.656;2022-07-29T13:38:22;10.45;;;2.40;;
68256;SDS011;55069;51.568;4.656;2022-07-29T13:40:49;6.07;;;2.90;;
68256;SDS011;55069;51.568;4.656;2022-07-29T13:43:15;8.93;;;3.17;;
68256;SDS011;55069;51.568;4.656;2022-07-29T13:45:40;6.78;;;2.78;;
68256;SDS011;55069;51.568;4.656;2022-07-29T13:48:06;5.50;;;2.90;;
68256;SDS011;55069;51.568;4.656;2022-07-29T13:50:32;7.03;;;3.22;;
68256;SDS011;55069;51.568;4.656;2022-07-29T13:52:58;5.55;;;3.05;;
68256;SDS011;55069;51.568;4.656;2022-07-29T13:55:24;8.20;;;3.40;;
68256;SDS011;55069;51.568;4.656;2022-07-29T13:57:52;9.63;;;3.60;;
68256;SDS011;55069;51.568;4.656;2022-07-29T14:00:18;10.77;;;3.35;;
68256;SDS011;55069;51.568;4.656;2022-07-29T14:02:44;7.17;;;3.17;;
68256;SDS011;55069;51.568;4.656;2022-07-29T14:05:10;8.18;;;3.17;;
68256;SDS011;55069;51.568;4.656;2022-07-29T14:07:36;14.02;;;2.55;;
68256;SDS011;55069;51.568;4.656;2022-07-29T14:10:04;4.60;;;2.40;;
68256;SDS011;55069;51.568;4.656;2022-07-29T14:12:30;6.40;;;3.03;;
68256;SDS011;55069;51.568;4.656;2022-07-29T14:14:56;8.70;;;2.70;;
68256;SDS011;55069;51.568;4.656;2022-07-29T14:17:24;9.05;;;2.78;;
68256;SDS011;55069;51.568;4.656;2022-07-29T14:19:50;9.73;;;3.47;;
68256;SDS011;55069;51.568;4.656;2022-07-29T14:22:16;8.00;;;3.57;;
68256;SDS011;55069;51.568;4.656;2022-07-29T14:24:44;7.38;;;2.92;;
68256;SDS011;55069;51.568;4.656;2022-07-29T14:27:10;6.70;;;2.78;;
68256;SDS011;55069;51.568;4.656;2022-07-29T14:29:36;19.55;;;3.90;;
68256;SDS011;55069;51.568;4.656;2022-07-29T14:32:03;6.57;;;3.63;;
68256;SDS011;55069;51.568;4.656;2022-07-29T14:34:29;8.60;;;3.03;;
68256;SDS011;55069;51.568;4.656;2022-07-29T14:36:55;8.05;;;3.22;;
68256;SDS011;55069;51.568;4.656;2022-07-29T14:39:22;8.43;;;3.75;;
68256;SDS011;55069;51.568;4.656;2022-07-29T14:41:51;6.17;;;3.23;;
68256;SDS011;55069;51.568;4.656;2022-07-29T14:44:17;6.55;;;3.45;;
68256;SDS011;55069;51.568;4.656;2022-07-29T14:46:43;7.03;;;3.78;;
68256;SDS011;55069;51.568;4.656;2022-07-29T14:49:09;7.20;;;3.33;;
68256;SDS011;55069;51.568;4.656;2022-07-29T14:51:35;9.00;;;3.63;;
68256;SDS011;55069;51.568;4.656;2022-07-29T14:54:01;7.87;;;3.37;;
68256;SDS011;55069;51.568;4.656;2022-07-29T14:56:27;6.07;;;3.10;;
68256;SDS011;55069;51.568;4.656;2022-07-29T14:58:55;7.75;;;2.78;;
68256;SDS011;55069;51.568;4.656;2022-07-29T15:01:22;7.20;;;3.50;;
68256;SDS011;55069;51.568;4.656;2022-07-29T15:03:49;6.75;;;2.90;;
68256;SDS011;55069;51.568;4.656;2022-07-29T15:06:15;7.88;;;2.85;;
68256;SDS011;55069;51.568;4.656;2022-07-29T15:08:44;6.30;;;2.87;;
68256;SDS011;55069;51.568;4.656;2022-07-29T15:11:09;8.47;;;3.50;;
68256;SDS011;55069;51.568;4.656;2022-07-29T15:13:35;6.85;;;2.67;;
68256;SDS011;55069;51.568;4.656;2022-07-29T15:16:01;11.70;;;3.00;;
68256;SDS011;55069;51.568;4.656;2022-07-29T15:18:27;6.88;;;3.10;;
68256;SDS011;55069;51.568;4.656;2022-07-29T15:20:53;12.13;;;3.15;;
68256;SDS011;55069;51.568;4.656;2022-07-29T15:23:18;7.93;;;2.93;;
68256;SDS011;55069;51.568;4.656;2022-07-29T15:25:44;7.15;;;2.72;;
68256;SDS011;55069;51.568;4.656;2022-07-29T15:28:10;6.95;;;3.00;;
68256;SDS011;55069;51.568;4.656;2022-07-29T15:30:36;11.87;;;2.90;;
68256;SDS011;55069;51.568;4.656;2022-07-29T15:33:06;9.90;;;3.05;;
68256;SDS011;55069;51.568;4.656;2022-07-29T15:35:35;9.85;;;3.08;;
68256;SDS011;55069;51.568;4.656;2022-07-29T15:38:01;6.93;;;2.58;;